Gaberone/Khama, Botswana
Current Conditions -  °F | °C
As of 9:00 PM on Wednesday 26 Nov 2014 (Local Time) from FBSK Reporting Station
Clear Clear  
Wind Chill: 84°   Ceiling: Unl
Heat Index: 84°   Visibility: 6mi
Dew Point: 54°   Wind: 16mph
Humidity: 35%   Direction: 50°NE
Pressure: 29.85"   Gusts: NA
Location:  24.22°S, 25.92°E
Report Text: FBSK 261900Z 05014KT CAVOK 29/12 Q1011 NOSIG
Loading
Personal Weather Stations






























Interactive Weather Map New forecast layout! Learn more

10-Day Weather Forecast

Advertisements
Track Severe Weather on mobile